ATTENZIONE, DATI ANEMOMETRICI OFFLINE. RISOLVEREMO AL PIU' PRESTO - CI SCUSIAMO PER IL DISAGIO.

Report METAR

 

LIBG - Grottaglie(Civ/A, Italy
Distanza dalla stazione: NE 13km
Dati ricevuti: 26/06/2022 19:50
DATI Obsoleti
Sereno
Sereno
 Vento da S
Vento: S 6 km/h
Temperatura: 31°C
P.to Rugiada: 14°C
Umidità: 35%
Barometro: 1015 hPa
Riassunto: Sereno
Visibilità: superiore a 10 km
2022/06/26 17:50 LIBG 261750Z 19003KT CAVOK 31/14 Q1015
LIBH - Marina Di Ginosa, Italy
Distanza dalla stazione: O 33km
Dati ricevuti: 26/06/2022 19:55
DATI Obsoleti
Sereno
Sereno
 Vento da ESE
Vento: ESE 7 km/h
Temperatura: 29°C
Indice di Calore: 36°C
P.to Rugiada: 26°C
Umidità: 84%
Barometro: 1012 hPa
Riassunto: Sereno
Visibilità: superiore a 10 km
2022/06/26 17:55 LIBH 261755Z 12004KT CAVOK 29/26 Q1012 RMK SKC QUK 1 QUL 0 VIS MAR 20 KM VIS MIN 9999
 
LIBV - Gioia Del Colle, Italy
Distanza dalla stazione: NO 45km
Dati ricevuti: 27/06/2022 05:55
Sereno
Sereno
 Vento da Variabile
Vento: Variabile 4 km/h
Temperatura: 21°C
P.to Rugiada: 15°C
Umidità: 69%
Barometro: 1016 hPa
Riassunto: Sereno
Visibilità: superiore a 10 km
2022/06/27 03:55 LIBV 270355Z VRB02KT CAVOK 21/15 Q1016
LIBR - Brindisi/Casale, Italy
Distanza dalla stazione: ENE 62km
Dati ricevuti: 27/06/2022 06:20
Sereno
Sereno
 Vento da OSO
Vento: OSO 7 km/h
Temperatura: 23°C
P.to Rugiada: 15°C
Umidità: 61%
Barometro: 1015 hPa
Riassunto: Sereno
Visibilità: superiore a 10 km
2022/06/27 04:20 LIBR 270420Z 24004KT CAVOK 23/15 Q1015
 
LIBN - Lecce (it-Afb), Italy
Distanza dalla stazione: ESE 79km
Dati ricevuti: 27/06/2022 05:55
Sereno
Sereno
 Vento da Variabile
Vento: Variabile 6 km/h
Temperatura: 22°C
P.to Rugiada: 19°C
Umidità: 83%
Barometro: 1015 hPa
Riassunto: Sereno
Visibilità: superiore a 10 km
2022/06/27 03:55 LIBN 270355Z VRB03KT CAVOK 22/19 Q1015
LIBD - Bari/Palese Macc, Italy
Distanza dalla stazione: NNO 85km
Dati ricevuti: 27/06/2022 06:20
Sereno
Sereno
 Vento da S
Vento: S 6 km/h
Temperatura: 23°C
P.to Rugiada: 17°C
Umidità: 69%
Barometro: 1015 hPa
Riassunto: Sereno
Visibilità: superiore a 10 km
2022/06/27 04:20 LIBD 270420Z 19003KT 110V200 CAVOK 23/17 Q1015